Time;durP1;ratioP1;P1;durP2;ratioP2;P2;SDS_P1;SDS_P2;PMS_P1;PMS_P2;Temp;Humidity;BMP_temperature;BMP_pressure;BME280_temperature;BME280_humidity;BME280_pressure;Samples;Min_cycle;Max_cycle;Signal;HPM_P1;HPM_P2
2022/02/08 00:00:21;;;;;;;;;;;;;;;;;;5091286;28;20109;-72
2022/02/08 00:02:51;;;;;;;;;;;;;;;;;;5079631;28;19987;-73
2022/02/08 00:05:19;;;;;;;;;;;;;;;;;;5080358;28;20318;-72
2022/02/08 00:07:48;;;;;;;;;;;;;;;;;;5072929;28;19905;-71
2022/02/08 00:10:15;;;;;;;;;;;;;;;;;;5075408;28;20046;-75
2022/02/08 00:12:41;;;;;;;;;;;;;;;;;;5075872;28;19908;-71
2022/02/08 00:15:07;;;;;;;;;;;;;;;;;;5075804;28;19904;-73
2022/02/08 00:17:34;;;;;;;;;;;;;;;;;;5075579;28;20271;-71
2022/02/08 00:20:03;;;;;;;;;;;;;;;;;;5073205;28;19977;-74
2022/02/08 00:22:29;;;;;;;;;;;;;;;;;;5070542;28;19977;-72
2022/02/08 00:24:55;;;;;;;;;;;;;;;;;;5070139;28;20371;-77
2022/02/08 00:27:22;;;;;;;;;;;;;;;;;;5070583;28;19913;-72
2022/02/08 00:29:48;;;;;;;;;;;;;;;;;;5072288;28;19909;-75
2022/02/08 00:32:14;;;;;;;;;;;;;;;;;;5095743;28;19943;-73
2022/02/08 00:34:40;;;;;;;;;;;;;;;;;;5093620;28;19912;-72
2022/02/08 00:37:07;;;;;;;;;;;;;;;;;;5095667;28;19911;-74
2022/02/08 00:39:34;;;;;;;;;;;;;;;;;;5095304;28;20006;-72
2022/02/08 00:42:09;;;;;;;;;;;;;;;;;;5093394;28;20349;-72
2022/02/08 00:44:54;;;;;;;;;;;;;;;;;;5090680;28;19908;-75
2022/02/08 00:47:34;;;;;;;;;;;;;;;;;;5090533;28;19908;-74
2022/02/08 00:50:08;;;;;;;;;;;;;;;;;;5089766;28;20003;-73
2022/02/08 00:52:34;;;;;;;;;;;;;;;;;;5075898;28;19913;-73
2022/02/08 00:55:01;;;;;;;;;;;;;;;;;;5074812;28;19904;-73
2022/02/08 00:57:27;;;;;;;;;;;;;;;;;;5088930;28;19931;-72
2022/02/08 00:59:53;;;;;;;;;;;;;;;;;;5094400;28;19991;-73
2022/02/08 01:02:19;;;;;;;;;;;;;;;;;;5084802;28;19916;-72
2022/02/08 01:04:54;;;;;;;;;;;;;;;;;;5080786;28;20309;-72
2022/02/08 01:07:20;;;;;;;;;;;;;;;;;;5069787;28;20347;-72
2022/02/08 01:09:54;;;;;;;;;;;;;;;;;;5088767;28;19911;-72
2022/02/08 01:12:20;;;;;;;;;;;;;;;;;;5090063;28;20347;-72
2022/02/08 01:14:48;;;;;;;;;;;;;;;;;;5092082;28;19994;-72
2022/02/08 01:17:15;;;;;;;;;;;;;;;;;;5094654;28;19904;-72
2022/02/08 01:19:50;;;;;;;;;;;;;;;;;;5093735;28;19904;-72
2022/02/08 01:22:16;;;;;;;;;;;;;;;;;;5075806;28;19955;-72
2022/02/08 01:24:46;;;;;;;;;;;;;;;;;;5087830;28;20378;-72
2022/02/08 01:27:13;;;;;;;;;;;;;;;;;;5072488;28;20022;-72
2022/02/08 01:32:38;;;;;;;;;;;;;;;;;;5087343;28;20002;-74
2022/02/08 01:37:50;;;;;;;;;;;;;;;;;;5073347;28;19908;-72
2022/02/08 01:40:32;;;;;;;;;;;;;;;;;;5074164;28;19995;-72
2022/02/08 01:43:35;;;;;;;;;;;;;;;;;;5077744;28;20648;-72
2022/02/08 01:46:01;;;;;;;;;;;;;;;;;;5093122;28;20275;-72
2022/02/08 01:48:40;;;;;;;;;;;;;;;;;;5073241;28;19914;-72
2022/02/08 01:51:07;;;;;;;;;;;;;;;;;;5083075;28;19928;-72
2022/02/08 01:53:33;;;;;;;;;;;;;;;;;;5075435;28;19942;-72
2022/02/08 01:55:59;;;;;;;;;;;;;;;;;;5087271;28;19919;-72
2022/02/08 01:58:25;;;;;;;;;;;;;;;;;;5088838;28;19904;-72
2022/02/08 02:00:51;;;;;;;;;;;;;;;;;;5091056;28;19999;-72
2022/02/08 02:03:18;;;;;;;;;;;;;;;;;;5079319;28;19915;-72
2022/02/08 02:05:44;;;;;;;;;;;;;;;;;;5084571;28;19914;-72
2022/02/08 02:08:10;;;;;;;;;;;;;;;;;;5089702;28;19916;-72
2022/02/08 02:10:37;;;;;;;;;;;;;;;;;;5073985;28;19963;-72
2022/02/08 02:13:04;;;;;;;;;;;;;;;;;;5068382;28;19919;-72
2022/02/08 02:15:32;;;;;;;;;;;;;;;;;;5067622;28;19911;-72
2022/02/08 02:17:58;;;;;;;;;;;;;;;;;;5068052;28;19916;-71
2022/02/08 02:20:25;;;;;;;;;;;;;;;;;;5050693;28;20275;-72
2022/02/08 02:22:51;;;;;;;;;;;;;;;;;;5073336;28;20294;-72
2022/02/08 02:25:17;;;;;;;;;;;;;;;;;;5085365;28;19931;-72
2022/02/08 02:27:43;;;;;;;;;;;;;;;;;;5081324;28;20268;-72
2022/02/08 02:30:10;;;;;;;;;;;;;;;;;;5093266;28;19981;-73
2022/02/08 02:32:36;;;;;;;;;;;;;;;;;;5075590;28;19908;-73
2022/02/08 02:35:02;;;;;;;;;;;;;;;;;;5069910;28;19908;-72
2022/02/08 02:37:28;;;;;;;;;;;;;;;;;;5071218;28;19908;-72
2022/02/08 02:39:55;;;;;;;;;;;;;;;;;;5085608;28;20279;-72
2022/02/08 02:42:21;;;;;;;;;;;;;;;;;;5073827;28;19908;-72
2022/02/08 02:44:47;;;;;;;;;;;;;;;;;;5092256;28;20417;-72
2022/02/08 02:47:14;;;;;;;;;;;;;;;;;;5092321;28;19912;-72
2022/02/08 02:49:40;;;;;;;;;;;;;;;;;;5075318;28;19938;-72
2022/02/08 02:52:07;;;;;;;;;;;;;;;;;;5088785;28;19969;-72
2022/02/08 02:54:33;;;;;;;;;;;;;;;;;;5078646;28;19912;-73
2022/02/08 02:57:01;;;;;;;;;;;;;;;;;;5074284;28;20003;-72
2022/02/08 02:59:30;;;;;;;;;;;;;;;;;;5085218;28;19908;-72
2022/02/08 03:18:11;;;;;;;;;;;;;;;;;;5086089;28;19914;-72
2022/02/08 03:20:37;;;;;;;;;;;;;;;;;;5087748;28;19910;-72
2022/02/08 03:23:04;;;;;;;;;;;;;;;;;;5087805;28;19904;-74
2022/02/08 03:25:30;;;;;;;;;;;;;;;;;;5070012;28;20074;-73
2022/02/08 03:27:57;;;;;;;;;;;;;;;;;;5069264;28;19911;-73
2022/02/08 03:30:23;;;;;;;;;;;;;;;;;;5076906;28;20256;-75
2022/02/08 03:32:50;;;;;;;;;;;;;;;;;;5076796;28;20430;-73
2022/02/08 03:35:16;;;;;;;;;;;;;;;;;;5076238;28;20244;-74
2022/02/08 03:37:56;;;;;;;;;;;;;;;;;;5076146;28;19952;-72
2022/02/08 03:43:01;;;;;;;;;;;;;;;;;;5071333;28;19991;-75
2022/02/08 03:45:27;;;;;;;;;;;;;;;;;;5070636;28;19908;-75
2022/02/08 03:47:53;;;;;;;;;;;;;;;;;;5074641;28;19915;-75
2022/02/08 03:50:19;;;;;;;;;;;;;;;;;;5083161;28;20394;-73
2022/02/08 03:52:46;;;;;;;;;;;;;;;;;;5078683;28;19927;-71
2022/02/08 03:55:12;;;;;;;;;;;;;;;;;;5095308;28;20262;-70
2022/02/08 03:57:38;;;;;;;;;;;;;;;;;;5096481;28;19904;-71
2022/02/08 04:00:05;;;;;;;;;;;;;;;;;;5096162;28;19908;-72
2022/02/08 04:02:40;;;;;;;;;;;;;;;;;;5093864;28;20262;-76
2022/02/08 04:05:15;;;;;;;;;;;;;;;;;;5091175;28;19996;-73
2022/02/08 04:07:48;;;;;;;;;;;;;;;;;;5091065;28;19996;-75
2022/02/08 04:10:21;;;;;;;;;;;;;;;;;;5090912;28;19995;-74
2022/02/08 04:31:26;;;;;;;;;;;;;;;;;;5095859;28;20354;-74
2022/02/08 04:31:34;;;;;;;;;;;;;;;;;;5090562;28;19961;-72
2022/02/08 04:34:20;;;;;;;;;;;;;;;;;;5078202;28;19912;-71
2022/02/08 04:37:07;;;;;;;;;;;;;;;;;;5074499;28;20351;-71
2022/02/08 04:40:02;;;;;;;;;;;;;;;;;;5075473;28;20256;-72
2022/02/08 04:42:39;;;;;;;;;;;;;;;;;;5074863;28;19954;-70
2022/02/08 04:48:11;;;;;;;;;;;;;;;;;;5036844;28;20399;-69
2022/02/08 04:50:39;;;;;;;;;;;;;;;;;;5070038;28;19966;-69
2022/02/08 04:53:13;;;;;;;;;;;;;;;;;;5069894;28;19908;-73
2022/02/08 05:00:46;;;;;;;;;;;;;;;;;;5078534;28;19907;-72
2022/02/08 05:44:31;;;;;;;;;;;;;;;;;;5062241;28;19904;-72
2022/02/08 05:46:58;;;;;;;;;;;;;;;;;;5073968;28;20309;-72
2022/02/08 05:50:06;;;;;;;;;;;;;;;;;;5073947;28;19950;-71
2022/02/08 05:52:33;;;;;;;;;;;;;;;;;;5068842;28;19917;-72
2022/02/08 05:54:59;;;;;;;;;;;;;;;;;;5069814;28;20423;-71
2022/02/08 05:57:25;;;;;;;;;;;;;;;;;;5068489;28;20530;-73
2022/02/08 05:59:52;;;;;;;;;;;;;;;;;;5068496;28;19942;-71
2022/02/08 06:02:20;;;;;;;;;;;;;;;;;;5068608;28;20728;-72
2022/02/08 06:04:47;;;;;;;;;;;;;;;;;;5084028;28;20355;-72
2022/02/08 06:07:20;;;;;;;;;;;;;;;;;;5093876;28;19955;-71
2022/02/08 06:09:49;;;;;;;;;;;;;;;;;;5094015;28;20266;-72
2022/02/08 06:12:15;;;;;;;;;;;;;;;;;;5093401;28;19995;-72
2022/02/08 06:14:43;;;;;;;;;;;;;;;;;;5093813;28;19940;-72
2022/02/08 06:17:09;;;;;;;;;;;;;;;;;;5089859;28;19973;-72
2022/02/08 06:19:36;;;;;;;;;;;;;;;;;;5088444;28;19973;-72
2022/02/08 06:22:02;;;;;;;;;;;;;;;;;;5088463;28;20366;-72
2022/02/08 06:24:28;;;;;;;;;;;;;;;;;;5088491;28;19990;-72
2022/02/08 06:26:54;;;;;;;;;;;;;;;;;;5091252;28;19935;-72
2022/02/08 06:29:23;;;;;;;;;;;;;;;;;;5089580;28;19904;-73
2022/02/08 06:31:49;;;;;;;;;;;;;;;;;;5073291;28;19959;-72
2022/02/08 06:34:20;;;;;;;;;;;;;;;;;;5073169;28;19905;-72
2022/02/08 06:36:47;;;;;;;;;;;;;;;;;;5073280;28;20030;-71
2022/02/08 06:39:18;;;;;;;;;;;;;;;;;;5069607;28;20329;-72
2022/02/08 06:41:44;;;;;;;;;;;;;;;;;;5067857;28;19984;-72
2022/02/08 06:44:10;;;;;;;;;;;;;;;;;;5067385;28;19915;-72
2022/02/08 06:46:36;;;;;;;;;;;;;;;;;;5068821;28;19904;-72
2022/02/08 06:49:03;;;;;;;;;;;;;;;;;;5071469;28;19908;-71
2022/02/08 06:51:29;;;;;;;;;;;;;;;;;;5072823;28;19916;-71
2022/02/08 06:53:55;;;;;;;;;;;;;;;;;;5089238;28;19908;-72
2022/02/08 06:56:21;;;;;;;;;;;;;;;;;;5093165;28;19908;-71
2022/02/08 06:58:58;;;;;;;;;;;;;;;;;;5093069;28;19951;-71
2022/02/08 07:01:32;;;;;;;;;;;;;;;;;;5087863;28;19907;-72
2022/02/08 07:03:58;;;;;;;;;;;;;;;;;;5087169;28;20000;-72
2022/02/08 07:06:25;;;;;;;;;;;;;;;;;;5087773;28;19904;-72
2022/02/08 07:08:51;;;;;;;;;;;;;;;;;;5087673;28;19904;-72
2022/02/08 07:11:17;;;;;;;;;;;;;;;;;;5090480;28;19947;-72
2022/02/08 07:13:44;;;;;;;;;;;;;;;;;;5092411;28;19995;-72
2022/02/08 07:16:11;;;;;;;;;;;;;;;;;;5093062;28;19910;-72
2022/02/08 07:18:37;;;;;;;;;;;;;;;;;;5092898;28;19904;-72
2022/02/08 07:21:03;;;;;;;;;;;;;;;;;;5092858;28;19915;-72
2022/02/08 07:23:29;;;;;;;;;;;;;;;;;;5090016;28;19911;-72
2022/02/08 07:25:56;;;;;;;;;;;;;;;;;;5084285;28;20029;-72
2022/02/08 07:28:22;;;;;;;;;;;;;;;;;;5067333;28;19966;-72
2022/02/08 07:30:48;;;;;;;;;;;;;;;;;;5066880;28;19972;-72
2022/02/08 07:33:14;;;;;;;;;;;;;;;;;;5069529;28;20339;-72
2022/02/08 07:38:23;;;;;;;;;;;;;;;;;;5072257;28;20279;-71
2022/02/08 07:43:16;;;;;;;;;;;;;;;;;;5072142;28;19904;-72
2022/02/08 07:45:42;;;;;;;;;;;;;;;;;;5069700;28;19939;-72
2022/02/08 07:48:09;;;;;;;;;;;;;;;;;;5067333;28;20672;-71
2022/02/08 07:50:40;;;;;;;;;;;;;;;;;;5067000;28;20385;-71
2022/02/08 07:53:13;;;;;;;;;;;;;;;;;;5081084;28;20343;-71
2022/02/08 07:55:39;;;;;;;;;;;;;;;;;;5089935;28;19904;-71
2022/02/08 07:58:05;;;;;;;;;;;;;;;;;;5091982;28;19901;-72
2022/02/08 08:00:32;;;;;;;;;;;;;;;;;;5092107;28;20270;-72
2022/02/08 08:02:58;;;;;;;;;;;;;;;;;;5092549;28;20313;-71
2022/02/08 08:05:26;;;;;;;;;;;;;;;;;;5092214;28;20377;-71
2022/02/08 08:07:52;;;;;;;;;;;;;;;;;;5089822;28;19904;-72
2022/02/08 08:10:20;;;;;;;;;;;;;;;;;;5087094;28;19920;-71
2022/02/08 08:12:49;;;;;;;;;;;;;;;;;;5087059;28;19908;-72
2022/02/08 08:15:33;;;;;;;;;;;;;;;;;;5089521;28;19912;-72
2022/02/08 08:18:18;;;;;;;;;;;;;;;;;;5087603;28;19908;-72
2022/02/08 08:20:44;;;;;;;;;;;;;;;;;;5075529;28;20317;-72
2022/02/08 08:23:10;;;;;;;;;;;;;;;;;;5075250;28;19958;-72
2022/02/08 08:25:36;;;;;;;;;;;;;;;;;;5075847;28;19911;-71
2022/02/08 08:28:04;;;;;;;;;;;;;;;;;;5075837;28;19904;-71
2022/02/08 08:30:30;;;;;;;;;;;;;;;;;;5071948;28;19916;-71
2022/02/08 08:32:56;;;;;;;;;;;;;;;;;;5070334;28;19904;-71
2022/02/08 08:35:23;;;;;;;;;;;;;;;;;;5070101;28;19943;-71
2022/02/08 08:37:52;;;;;;;;;;;;;;;;;;5069890;28;20560;-72
2022/02/08 08:40:24;;;;;;;;;;;;;;;;;;5073049;28;20366;-71
2022/02/08 08:50:57;;;;;;;;;;;;;;;;;;5074906;28;19920;-71
2022/02/08 08:53:25;;;;;;;;;;;;;;;;;;5070093;28;19948;-71
2022/02/08 08:55:51;;;;;;;;;;;;;;;;;;5070153;28;19904;-71
2022/02/08 08:58:17;;;;;;;;;;;;;;;;;;5071814;28;20078;-72
2022/02/08 09:00:43;;;;;;;;;;;;;;;;;;5069802;28;20587;-71
2022/02/08 09:03:10;;;;;;;;;;;;;;;;;;5074093;28;19908;-72
2022/02/08 09:05:36;;;;;;;;;;;;;;;;;;5074873;28;19900;-71
2022/02/08 09:08:02;;;;;;;;;;;;;;;;;;5074772;28;19904;-71
2022/02/08 09:10:38;;;;;;;;;;;;;;;;;;5074825;28;19964;-71
2022/02/08 09:13:23;;;;;;;;;;;;;;;;;;5079077;28;19912;-72
2022/02/08 09:21:18;;;;;;;;;;;;;;;;;;5089655;28;19932;-71
2022/02/08 09:29:05;;;;;;;;;;;;;;;;;;5094540;28;19904;-71
2022/02/08 09:31:33;;;;;;;;;;;;;;;;;;5094623;28;19916;-71
2022/02/08 09:33:59;;;;;;;;;;;;;;;;;;5092864;28;19916;-71
2022/02/08 09:36:25;;;;;;;;;;;;;;;;;;5092589;28;19987;-71
2022/02/08 09:38:52;;;;;;;;;;;;;;;;;;5089156;28;19919;-71
2022/02/08 09:41:18;;;;;;;;;;;;;;;;;;5089286;28;19955;-71
2022/02/08 09:43:44;;;;;;;;;;;;;;;;;;5088823;28;19982;-72
2022/02/08 09:46:11;;;;;;;;;;;;;;;;;;5090089;28;19904;-71
2022/02/08 09:51:06;;;;;;;;;;;;;;;;;;5094266;28;19916;-71
2022/02/08 09:53:35;;;;;;;;;;;;;;;;;;5094063;28;20009;-71
2022/02/08 09:56:01;;;;;;;;;;;;;;;;;;5094085;28;20262;-71
2022/02/08 09:58:28;;;;;;;;;;;;;;;;;;5090337;28;20336;-72
2022/02/08 10:00:54;;;;;;;;;;;;;;;;;;5088415;28;19915;-72
2022/02/08 10:03:20;;;;;;;;;;;;;;;;;;5087099;28;19918;-72
2022/02/08 10:05:46;;;;;;;;;;;;;;;;;;5088888;28;19904;-71
2022/02/08 10:08:12;;;;;;;;;;;;;;;;;;5089432;28;19908;-71
2022/02/08 10:10:39;;;;;;;;;;;;;;;;;;5093967;28;20375;-71
2022/02/08 10:23:36;;;;;;;;;;;;;;;;;;5088148;28;19904;-72
2022/02/08 10:26:03;;;;;;;;;;;;;;;;;;5088238;28;19991;-72
2022/02/08 10:28:40;;;;;;;;;;;;;;;;;;5088245;28;19910;-71
2022/02/08 10:39:06;;;;;;;;;;;;;;;;;;5093296;28;19919;-71
2022/02/08 10:41:34;;;;;;;;;;;;;;;;;;5092197;28;19952;-71
2022/02/08 10:44:01;;;;;;;;;;;;;;;;;;5082704;28;19961;-71
2022/02/08 10:46:28;;;;;;;;;;;;;;;;;;5067721;28;19970;-71
2022/02/08 10:48:54;;;;;;;;;;;;;;;;;;5067770;28;19908;-71
2022/02/08 10:51:20;;;;;;;;;;;;;;;;;;5067535;28;19924;-71
2022/02/08 10:54:02;;;;;;;;;;;;;;;;;;5070781;28;19955;-71
2022/02/08 10:56:32;;;;;;;;;;;;;;;;;;5072466;28;20515;-72
2022/02/08 10:59:13;;;;;;;;;;;;;;;;;;5073081;28;19908;-71
2022/02/08 11:01:47;;;;;;;;;;;;;;;;;;5072797;28;19939;-71
2022/02/08 11:04:21;;;;;;;;;;;;;;;;;;5072929;28;19908;-71
2022/02/08 11:07:08;;;;;;;;;;;;;;;;;;5067265;28;19904;-72
2022/02/08 11:09:55;;;;;;;;;;;;;;;;;;5077597;28;19908;-71
2022/02/08 11:12:31;;;;;;;;;;;;;;;;;;5067084;28;19920;-72
2022/02/08 11:15:05;;;;;;;;;;;;;;;;;;5068296;28;19912;-71
2022/02/08 11:20:21;;;;;;;;;;;;;;;;;;5072718;28;19904;-71
2022/02/08 11:25:26;;;;;;;;;;;;;;;;;;5072540;28;19909;-71
2022/02/08 11:27:57;;;;;;;;;;;;;;;;;;5069972;28;20370;-71
2022/02/08 11:30:23;;;;;;;;;;;;;;;;;;5068134;28;19913;-71
2022/02/08 11:33:23;;;;;;;;;;;;;;;;;;5066989;28;20042;-72
2022/02/08 11:44:06;;;;;;;;;;;;;;;;;;5072251;28;19991;-71
2022/02/08 11:49:30;;;;;;;;;;;;;;;;;;5072681;28;19904;-71
2022/02/08 11:51:58;;;;;;;;;;;;;;;;;;5070753;28;19919;-71
2022/02/08 12:04:53;;;;;;;;;;;;;;;;;;5084739;28;20251;-72
2022/02/08 12:07:19;;;;;;;;;;;;;;;;;;5096362;28;19957;-71
2022/02/08 12:12:45;;;;;;;;;;;;;;;;;;5093315;28;19912;-71
2022/02/08 12:34:18;;;;;;;;;;;;;;;;;;5094056;28;20302;-72
2022/02/08 12:39:55;;;;;;;;;;;;;;;;;;5090341;28;19927;-71
2022/02/08 12:55:59;;;;;;;;;;;;;;;;;;5074368;28;20344;-72
2022/02/08 12:58:37;;;;;;;;;;;;;;;;;;5069930;28;19962;-71
2022/02/08 13:01:31;;;;;;;;;;;;;;;;;;5069670;28;19951;-71
2022/02/08 13:04:05;;;;;;;;;;;;;;;;;;5069723;28;19904;-71
2022/02/08 13:14:28;;;;;;;;;;;;;;;;;;5071448;28;20359;-72
2022/02/08 14:01:53;;;;;;;;;;;;;;;;;;5094822;28;19910;-73
2022/02/08 14:07:16;;;;;;;;;;;;;;;;;;5072208;28;19935;-73
2022/02/08 14:10:03;;;;;;;;;;;;;;;;;;5069163;28;19909;-73
2022/02/08 14:18:04;;;;;;;;;;;;;;;;;;5074170;28;20371;-73
2022/02/08 14:23:26;;;;;;;;;;;;;;;;;;5074900;28;19916;-73
2022/02/08 14:32:07;;;;;;;;;;;;;;;;;;5054834;28;20422;-73
2022/02/08 15:07:27;;;;;;;;;;;;;;;;;;5073659;28;19910;-73
2022/02/08 15:09:55;;;;;;;;;;;;;;;;;;5070486;28;19904;-73
2022/02/08 15:12:23;;;;;;;;;;;;;;;;;;5068244;28;19973;-74
2022/02/08 15:14:53;;;;;;;;;;;;;;;;;;5068009;28;19904;-73
2022/02/08 15:17:19;;;;;;;;;;;;;;;;;;5067853;28;19904;-74
2022/02/08 15:19:48;;;;;;;;;;;;;;;;;;5070226;28;20262;-72
2022/02/08 15:22:15;;;;;;;;;;;;;;;;;;5073343;28;19947;-73
2022/02/08 15:24:42;;;;;;;;;;;;;;;;;;5087476;28;19956;-73
2022/02/08 15:27:10;;;;;;;;;;;;;;;;;;5097919;28;19908;-73
2022/02/08 15:29:36;;;;;;;;;;;;;;;;;;5097548;28;19987;-73
2022/02/08 15:32:05;;;;;;;;;;;;;;;;;;5094852;28;20343;-73
2022/02/08 15:34:31;;;;;;;;;;;;;;;;;;5092071;28;19929;-73
2022/02/08 15:36:58;;;;;;;;;;;;;;;;;;5092160;28;20581;-73
2022/02/08 15:39:24;;;;;;;;;;;;;;;;;;5092019;28;19953;-73
2022/02/08 15:41:50;;;;;;;;;;;;;;;;;;5093991;28;20377;-73
2022/02/08 15:44:23;;;;;;;;;;;;;;;;;;5097134;28;20343;-73
2022/02/08 15:46:51;;;;;;;;;;;;;;;;;;5097119;28;19910;-73
2022/02/08 15:49:17;;;;;;;;;;;;;;;;;;5096302;28;19911;-73
2022/02/08 15:51:46;;;;;;;;;;;;;;;;;;5076864;28;19912;-73
2022/02/08 15:54:20;;;;;;;;;;;;;;;;;;5074181;28;20256;-73
2022/02/08 15:57:11;;;;;;;;;;;;;;;;;;5071529;28;20343;-73
2022/02/08 16:05:32;;;;;;;;;;;;;;;;;;5075084;28;19910;-73
2022/02/08 16:08:04;;;;;;;;;;;;;;;;;;5076468;28;20357;-73
2022/02/08 16:10:38;;;;;;;;;;;;;;;;;;5076270;28;19905;-73
2022/02/08 16:16:06;;;;;;;;;;;;;;;;;;5075007;28;19904;-73
2022/02/08 16:18:37;;;;;;;;;;;;;;;;;;5070047;28;20319;-73
2022/02/08 16:26:23;;;;;;;;;;;;;;;;;;5072641;28;19904;-73
2022/02/08 16:29:12;;;;;;;;;;;;;;;;;;5076344;28;19957;-75
2022/02/08 16:53:25;;;;;;;;;;;;;;;;;;5075791;28;20377;-73
2022/02/08 17:00:59;;;;;;;;;;;;;;;;;;5093156;28;19908;-73
2022/02/08 17:03:30;;;;;;;;;;;;;;;;;;5090459;28;20003;-74
2022/02/08 17:05:56;;;;;;;;;;;;;;;;;;5090423;28;19911;-74
2022/02/08 17:08:24;;;;;;;;;;;;;;;;;;5090356;28;19927;-73
2022/02/08 17:10:54;;;;;;;;;;;;;;;;;;5092803;28;19916;-73
2022/02/08 17:13:38;;;;;;;;;;;;;;;;;;5089228;28;20310;-73
2022/02/08 17:48:08;;;;;;;;;;;;;;;;;;5075122;28;19908;-73
2022/02/08 17:50:34;;;;;;;;;;;;;;;;;;5087936;28;19908;-73
2022/02/08 17:53:00;;;;;;;;;;;;;;;;;;5088780;28;19904;-73
2022/02/08 17:55:29;;;;;;;;;;;;;;;;;;5091231;28;20002;-73
2022/02/08 17:57:55;;;;;;;;;;;;;;;;;;5093898;28;19904;-73
2022/02/08 18:00:22;;;;;;;;;;;;;;;;;;5087002;28;19923;-73
2022/02/08 18:02:48;;;;;;;;;;;;;;;;;;5073308;28;19911;-73
2022/02/08 18:05:14;;;;;;;;;;;;;;;;;;5073329;28;19908;-73
2022/02/08 18:07:40;;;;;;;;;;;;;;;;;;5069734;28;19943;-73
2022/02/08 18:10:07;;;;;;;;;;;;;;;;;;5067848;28;20663;-73
2022/02/08 18:12:33;;;;;;;;;;;;;;;;;;5068000;28;19913;-72
2022/02/08 18:15:04;;;;;;;;;;;;;;;;;;5068920;28;20009;-73
2022/02/08 18:17:34;;;;;;;;;;;;;;;;;;5070147;28;20346;-72
2022/02/08 18:20:10;;;;;;;;;;;;;;;;;;5072781;28;19946;-75
2022/02/08 18:28:08;;;;;;;;;;;;;;;;;;5073221;28;19904;-72
2022/02/08 19:19:35;;;;;;;;;;;;;;;;;;5076917;28;19915;-71
2022/02/08 19:22:01;;;;;;;;;;;;;;;;;;5085992;28;19908;-71
2022/02/08 19:24:27;;;;;;;;;;;;;;;;;;5091040;28;19956;-74
2022/02/08 19:26:55;;;;;;;;;;;;;;;;;;5092767;28;20038;-70
2022/02/08 19:29:23;;;;;;;;;;;;;;;;;;5092251;28;20263;-71
2022/02/08 19:31:49;;;;;;;;;;;;;;;;;;5080969;28;20420;-71
2022/02/08 19:34:15;;;;;;;;;;;;;;;;;;5073424;28;19915;-72
2022/02/08 19:36:43;;;;;;;;;;;;;;;;;;5069135;28;19905;-70
2022/02/08 19:39:09;;;;;;;;;;;;;;;;;;5067178;28;19911;-71
2022/02/08 19:41:36;;;;;;;;;;;;;;;;;;5067303;28;19919;-71
2022/02/08 19:44:02;;;;;;;;;;;;;;;;;;5067088;28;19911;-71
2022/02/08 19:46:29;;;;;;;;;;;;;;;;;;5070964;28;20007;-71
2022/02/08 19:48:55;;;;;;;;;;;;;;;;;;5072399;28;19904;-72
2022/02/08 19:51:21;;;;;;;;;;;;;;;;;;5072358;28;20341;-72
2022/02/08 19:53:51;;;;;;;;;;;;;;;;;;5072306;28;19931;-72
2022/02/08 19:58:43;;;;;;;;;;;;;;;;;;5069009;28;20258;-71
2022/02/08 20:01:14;;;;;;;;;;;;;;;;;;5066624;28;19904;-72
2022/02/08 20:03:47;;;;;;;;;;;;;;;;;;5067350;28;19905;-72
2022/02/08 20:06:13;;;;;;;;;;;;;;;;;;5067263;28;19911;-71
2022/02/08 20:08:40;;;;;;;;;;;;;;;;;;5074083;28;19912;-71
2022/02/08 20:11:06;;;;;;;;;;;;;;;;;;5094740;28;19947;-71
2022/02/08 20:13:32;;;;;;;;;;;;;;;;;;5095350;28;19904;-74
2022/02/08 20:15:59;;;;;;;;;;;;;;;;;;5095414;28;19966;-72
2022/02/08 20:18:26;;;;;;;;;;;;;;;;;;5096134;28;20350;-70
2022/02/08 20:20:52;;;;;;;;;;;;;;;;;;5092856;28;19908;-73
2022/02/08 20:23:22;;;;;;;;;;;;;;;;;;5091000;28;19941;-72
2022/02/08 20:25:53;;;;;;;;;;;;;;;;;;5090616;28;19911;-72
2022/02/08 20:28:35;;;;;;;;;;;;;;;;;;5090447;28;19918;-71
2022/02/08 20:31:01;;;;;;;;;;;;;;;;;;5093784;28;20476;-71
2022/02/08 20:33:28;;;;;;;;;;;;;;;;;;5085055;28;19908;-69
2022/02/08 20:35:54;;;;;;;;;;;;;;;;;;5075686;28;19915;-71
2022/02/08 20:38:20;;;;;;;;;;;;;;;;;;5075607;28;19923;-69
2022/02/08 20:40:49;;;;;;;;;;;;;;;;;;5075596;28;19913;-69
2022/02/08 20:43:17;;;;;;;;;;;;;;;;;;5072150;28;19916;-69
2022/02/08 20:45:43;;;;;;;;;;;;;;;;;;5070346;28;19908;-69
2022/02/08 20:48:09;;;;;;;;;;;;;;;;;;5070538;28;19943;-71
2022/02/08 20:50:37;;;;;;;;;;;;;;;;;;5070180;28;20351;-71
2022/02/08 20:53:14;;;;;;;;;;;;;;;;;;5072893;28;19908;-71
2022/02/08 20:55:46;;;;;;;;;;;;;;;;;;5076684;28;19914;-72
2022/02/08 20:58:17;;;;;;;;;;;;;;;;;;5074844;28;19934;-71
2022/02/08 21:00:44;;;;;;;;;;;;;;;;;;5074992;28;19904;-71
2022/02/08 21:03:34;;;;;;;;;;;;;;;;;;5075324;28;19923;-72
2022/02/08 21:08:25;;;;;;;;;;;;;;;;;;5071928;28;19952;-72
2022/02/08 21:10:51;;;;;;;;;;;;;;;;;;5088095;28;19919;-72
2022/02/08 21:13:28;;;;;;;;;;;;;;;;;;5083756;28;19904;-74
2022/02/08 21:15:54;;;;;;;;;;;;;;;;;;5090887;28;19915;-73
2022/02/08 21:18:21;;;;;;;;;;;;;;;;;;5094386;28;19904;-74
2022/02/08 21:20:47;;;;;;;;;;;;;;;;;;5094616;28;20386;-74
2022/02/08 21:23:14;;;;;;;;;;;;;;;;;;5094737;28;19943;-71
2022/02/08 21:25:47;;;;;;;;;;;;;;;;;;5094745;28;20378;-70
2022/02/08 21:28:23;;;;;;;;;;;;;;;;;;5090131;28;20040;-73
2022/02/08 21:43:18;;;;;;;;;;;;;;;;;;5089294;28;19915;-73
2022/02/08 21:49:45;;;;;;;;;;;;;;;;;;5091818;28;19973;-74
2022/02/08 21:52:27;;;;;;;;;;;;;;;;;;5089177;28;19960;-69
2022/02/08 21:54:53;;;;;;;;;;;;;;;;;;5087382;28;20270;-71
2022/02/08 21:57:22;;;;;;;;;;;;;;;;;;5089180;28;19940;-70
2022/02/08 21:59:48;;;;;;;;;;;;;;;;;;5091955;28;19986;-73
2022/02/08 22:02:15;;;;;;;;;;;;;;;;;;5094379;28;20311;-73
2022/02/08 22:04:41;;;;;;;;;;;;;;;;;;5094010;28;19915;-72
2022/02/08 22:07:13;;;;;;;;;;;;;;;;;;5093868;28;19957;-73
2022/02/08 22:09:41;;;;;;;;;;;;;;;;;;5092101;28;19904;-73
2022/02/08 22:20:57;;;;;;;;;;;;;;;;;;5045760;28;19955;-74
2022/02/08 22:23:30;;;;;;;;;;;;;;;;;;5043177;28;19905;-74
2022/02/08 22:29:00;;;;;;;;;;;;;;;;;;5074878;28;19991;-73
2022/02/08 22:34:05;;;;;;;;;;;;;;;;;;5090273;28;19908;-73
2022/02/08 22:36:37;;;;;;;;;;;;;;;;;;5088474;28;19904;-73
2022/02/08 22:39:17;;;;;;;;;;;;;;;;;;5088014;28;19910;-74
2022/02/08 22:44:26;;;;;;;;;;;;;;;;;;5090942;28;19910;-74
2022/02/08 22:46:56;;;;;;;;;;;;;;;;;;5092553;28;19908;-73
2022/02/08 22:49:23;;;;;;;;;;;;;;;;;;5093147;28;19972;-73
2022/02/08 22:51:49;;;;;;;;;;;;;;;;;;5093326;28;20698;-73
2022/02/08 22:54:15;;;;;;;;;;;;;;;;;;5093105;28;19904;-73
2022/02/08 22:56:43;;;;;;;;;;;;;;;;;;5089617;28;19904;-73
2022/02/08 22:59:10;;;;;;;;;;;;;;;;;;5088031;28;19908;-74
2022/02/08 23:01:37;;;;;;;;;;;;;;;;;;5088015;28;19904;-73
2022/02/08 23:04:04;;;;;;;;;;;;;;;;;;5087460;28;19930;-73
2022/02/08 23:06:32;;;;;;;;;;;;;;;;;;5090831;28;19905;-73
2022/02/08 23:09:00;;;;;;;;;;;;;;;;;;5089181;28;19916;-73
2022/02/08 23:11:48;;;;;;;;;;;;;;;;;;5092535;28;19942;-74
2022/02/08 23:14:19;;;;;;;;;;;;;;;;;;5092878;28;19926;-77
2022/02/08 23:17:10;;;;;;;;;;;;;;;;;;5091705;28;19907;-73
2022/02/08 23:38:44;;;;;;;;;;;;;;;;;;5072484;28;19961;-73
2022/02/08 23:41:10;;;;;;;;;;;;;;;;;;5069349;28;19900;-73
2022/02/08 23:43:37;;;;;;;;;;;;;;;;;;5067777;28;19927;-74
2022/02/08 23:46:03;;;;;;;;;;;;;;;;;;5070891;28;19912;-75
2022/02/08 23:48:36;;;;;;;;;;;;;;;;;;5071279;28;19905;-74
2022/02/08 23:51:17;;;;;;;;;;;;;;;;;;5074190;28;20381;-75
2022/02/08 23:53:47;;;;;;;;;;;;;;;;;;5080940;28;20031;-74
2022/02/08 23:56:27;;;;;;;;;;;;;;;;;;5096418;28;19904;-74
2022/02/08 23:58:53;;;;;;;;;;;;;;;;;;5096533;28;20342;-74
